createdAt,value
2022-12-13T00:03:40.178Z,97252.59
2022-12-13T00:07:57.318Z,97254.34
2022-12-13T00:12:14.189Z,97244.66
2022-12-13T00:16:31.372Z,97247.41
2022-12-13T00:20:48.267Z,97253.91
2022-12-13T00:25:05.748Z,97254.13
2022-12-13T00:29:22.617Z,97253.72
2022-12-13T00:33:40.131Z,97261.78
2022-12-13T00:37:56.954Z,97258.25
2022-12-13T00:42:14.009Z,97271.66
2022-12-13T00:46:32.398Z,97262.22
2022-12-13T00:50:49.769Z,97274.47
2022-12-13T00:55:07.234Z,97269.31
2022-12-13T00:59:24.275Z,97278.34
2022-12-13T01:03:42.303Z,97273.41
2022-12-13T01:07:59.415Z,97274.81
2022-12-13T01:12:16.467Z,97275.84
2022-12-13T01:16:33.608Z,97281.31
2022-12-13T01:21:01.497Z,97274.91
2022-12-13T01:25:18.354Z,97270.78
2022-12-13T01:29:35.799Z,97272.16
2022-12-13T01:33:52.721Z,97272.16
2022-12-13T01:38:15.748Z,97276.31
2022-12-13T01:42:33.094Z,97269.94
2022-12-13T01:46:51.220Z,97278.69
2022-12-13T01:51:11.912Z,97274.09
2022-12-13T01:55:34.735Z,97276.47
2022-12-13T01:59:58.820Z,97287.38
2022-12-13T02:04:21.277Z,97276.25
2022-12-13T02:08:40.584Z,97288.56
2022-12-13T02:12:58.973Z,97289.78
2022-12-13T02:17:52.984Z,97292.72
2022-12-13T02:23:21.254Z,97308.00
2022-12-13T02:28:30.851Z,97317.47
2022-12-13T02:33:05.343Z,97303.63
2022-12-13T02:37:32.997Z,97305.00
2022-12-13T02:42:22.345Z,97306.59
2022-12-13T02:46:49.489Z,97310.16
2022-12-13T02:51:09.453Z,97322.63
2022-12-13T02:55:28.253Z,97323.22
2022-12-13T02:59:45.562Z,97322.41
2022-12-13T03:04:32.214Z,97315.47
2022-12-13T03:09:31.766Z,97316.09
2022-12-13T03:13:55.346Z,97320.25
2022-12-13T03:18:20.382Z,97318.00
2022-12-13T03:22:37.285Z,97320.09
2022-12-13T03:26:54.533Z,97329.44
2022-12-13T03:31:11.698Z,97328.94
2022-12-13T03:35:34.668Z,97333.72
2022-12-13T03:40:02.161Z,97337.38
2022-12-13T03:44:19.058Z,97345.84
2022-12-13T03:48:36.770Z,97334.75
2022-12-13T03:53:00.072Z,97347.56
2022-12-13T03:57:17.332Z,97343.72
2022-12-13T04:01:34.427Z,97345.34
2022-12-13T04:05:51.320Z,97351.38
2022-12-13T04:10:26.395Z,97357.28
2022-12-13T04:14:43.670Z,97352.16
2022-12-13T04:19:00.730Z,97358.66
2022-12-13T04:23:17.634Z,97358.22
2022-12-13T04:27:34.838Z,97358.03
2022-12-13T04:31:51.687Z,97360.69
2022-12-13T04:36:08.966Z,97364.91
2022-12-13T04:40:25.822Z,97361.16
2022-12-13T04:44:46.027Z,97365.88
2022-12-13T04:49:03.476Z,97363.69
2022-12-13T04:53:20.522Z,97352.19
2022-12-13T04:57:37.551Z,97353.03
2022-12-13T05:01:54.668Z,97359.38
2022-12-13T05:06:26.215Z,97362.47
2022-12-13T05:10:44.964Z,97361.66
2022-12-13T05:15:01.809Z,97363.50
2022-12-13T05:19:19.218Z,97369.44
2022-12-13T05:23:36.957Z,97358.16
2022-12-13T05:27:56.880Z,97362.47
2022-12-13T05:32:14.345Z,97366.59
2022-12-13T05:36:31.268Z,97356.53
2022-12-13T05:40:48.348Z,97357.88
2022-12-13T05:45:08.203Z,97359.91
2022-12-13T05:49:25.282Z,97357.56
2022-12-13T05:53:42.690Z,97361.59
2022-12-13T05:58:02.385Z,97365.78
2022-12-13T06:02:21.836Z,97371.16
2022-12-13T06:06:39.203Z,97371.34
2022-12-13T06:11:11.116Z,97372.16
2022-12-13T06:15:29.223Z,97368.56
2022-12-13T06:19:52.327Z,97366.81
2022-12-13T06:24:09.645Z,97367.41
2022-12-13T06:28:26.531Z,97378.88
2022-12-13T06:32:44.054Z,97380.47
2022-12-13T06:37:02.096Z,97384.44
2022-12-13T06:41:19.190Z,97392.34
2022-12-13T06:45:40.615Z,97385.03
2022-12-13T06:49:57.607Z,97393.97
2022-12-13T06:54:22.542Z,97399.50
2022-12-13T06:58:42.462Z,97404.31
2022-12-13T07:02:59.400Z,97416.47
2022-12-13T07:07:16.678Z,97414.31
2022-12-13T07:11:33.710Z,97424.03
2022-12-13T07:15:50.931Z,97423.81
2022-12-13T07:20:09.311Z,97419.06
2022-12-13T07:24:26.364Z,97426.19
2022-12-13T07:28:43.381Z,97438.25
2022-12-13T07:45:46.714Z,97444.28
2022-12-13T07:50:03.755Z,97445.84
2022-12-13T07:54:20.841Z,97450.41
2022-12-13T07:58:39.083Z,97457.56
2022-12-13T08:02:56.227Z,97456.97
2022-12-13T08:07:13.198Z,97456.91
2022-12-13T08:11:30.065Z,97456.00
2022-12-13T08:15:47.154Z,97463.91
2022-12-13T08:20:05.450Z,97463.00
2022-12-13T08:24:24.529Z,97462.13
2022-12-13T08:28:41.362Z,97458.41
2022-12-13T08:32:58.375Z,97472.22
2022-12-13T08:37:15.764Z,97481.22
2022-12-13T08:41:37.409Z,97494.25
2022-12-13T08:45:56.010Z,97487.47
2022-12-13T08:50:18.424Z,97487.28
2022-12-13T08:54:35.291Z,97499.72
2022-12-13T08:58:52.303Z,97494.41
2022-12-13T09:03:10.048Z,97496.13
2022-12-13T09:07:27.722Z,97497.81
2022-12-13T09:11:44.522Z,97493.63
2022-12-13T09:16:14.461Z,97495.88
2022-12-13T09:20:42.812Z,97501.06
2022-12-13T09:25:02.579Z,97499.28
2022-12-13T09:29:19.929Z,97501.06
2022-12-13T09:33:40.895Z,97502.59
2022-12-13T09:37:58.422Z,97501.91
2022-12-13T09:42:30.560Z,97506.13
2022-12-13T09:46:50.890Z,97500.81
2022-12-13T09:51:18.219Z,97495.31
2022-12-13T09:55:50.527Z,97496.97
2022-12-13T10:00:12.582Z,97501.06
2022-12-13T10:04:29.822Z,97504.53
2022-12-13T10:08:58.660Z,97509.63
2022-12-13T10:13:15.995Z,97500.28
2022-12-13T10:17:38.588Z,97511.09
2022-12-13T10:21:56.038Z,97511.16
2022-12-13T10:26:24.547Z,97498.94
2022-12-13T10:30:46.191Z,97502.50
2022-12-13T10:35:30.505Z,97498.94
2022-12-13T10:39:47.512Z,97492.13
2022-12-13T10:44:25.451Z,97490.56
2022-12-13T10:48:51.883Z,97491.72
2022-12-13T10:53:18.199Z,97485.22
2022-12-13T10:57:39.914Z,97491.38
2022-12-13T11:01:56.913Z,97492.44
2022-12-13T11:06:18.265Z,97488.91
2022-12-13T11:10:35.213Z,97485.09
2022-12-13T11:15:01.891Z,97480.91
2022-12-13T11:19:23.596Z,97475.56
2022-12-13T11:23:46.181Z,97471.44
2022-12-13T11:28:28.510Z,97464.06
2022-12-13T11:33:20.867Z,97463.69
2022-12-13T11:37:58.440Z,97464.72
2022-12-13T11:42:41.354Z,97466.44
2022-12-13T11:47:00.990Z,97465.69
2022-12-13T11:51:27.193Z,97467.88
2022-12-13T11:55:59.552Z,97468.06
2022-12-13T12:00:48.437Z,97478.00
2022-12-13T12:05:17.363Z,97474.03
2022-12-13T12:09:36.586Z,97479.38
2022-12-13T12:14:01.022Z,97481.59
2022-12-13T12:18:18.097Z,97487.59
2022-12-13T12:22:53.049Z,97500.81
2022-12-13T12:27:47.837Z,97501.44
2022-12-13T12:32:14.256Z,97485.91
2022-12-13T12:36:46.859Z,97493.25
2022-12-13T12:41:45.280Z,97480.94
2022-12-13T12:46:22.929Z,97477.97
2022-12-13T12:51:00.487Z,97477.97
2022-12-13T12:55:49.415Z,97480.38
2022-12-13T13:00:16.064Z,97483.53
2022-12-13T13:04:44.575Z,97482.34
2022-12-13T13:09:05.382Z,97490.09
2022-12-13T13:13:48.193Z,97480.22
2022-12-13T13:18:05.230Z,97475.06
2022-12-13T13:22:43.369Z,97478.78
2022-12-13T13:27:08.849Z,97484.34
2022-12-13T13:31:25.929Z,97483.72
2022-12-13T13:35:42.772Z,97491.06
2022-12-13T13:40:02.746Z,97504.28
2022-12-13T13:44:54.483Z,97508.91
2022-12-13T13:49:12.860Z,97496.19
2022-12-13T13:53:58.895Z,97505.34
2022-12-13T13:58:43.606Z,97510.28
2022-12-13T14:03:38.482Z,97514.84
2022-12-13T14:09:01.561Z,97513.28
2022-12-13T14:13:50.234Z,97512.47
2022-12-13T14:18:38.638Z,97512.66
2022-12-13T14:23:14.696Z,97515.44
2022-12-13T14:27:49.256Z,97521.59
2022-12-13T14:32:27.688Z,97518.44
2022-12-13T14:36:49.664Z,97535.50
2022-12-13T14:41:08.707Z,97540.66
2022-12-13T14:45:36.958Z,97537.84
2022-12-13T14:49:55.666Z,97539.63
2022-12-13T14:54:25.868Z,97534.28
2022-12-13T14:58:58.124Z,97533.72
2022-12-13T15:03:27.890Z,97538.34
2022-12-13T15:07:45.317Z,97539.41
2022-12-13T15:12:23.984Z,97535.84
2022-12-13T15:16:51.483Z,97536.66
2022-12-13T15:21:24.795Z,97544.19
2022-12-13T15:25:42.488Z,97543.78
2022-12-13T15:29:59.547Z,97546.38
2022-12-13T15:34:37.408Z,97559.25
2022-12-13T15:38:54.876Z,97559.25
2022-12-13T15:43:18.391Z,97555.50
2022-12-13T15:47:35.339Z,97548.56
2022-12-13T15:52:28.678Z,97551.41
2022-12-13T15:57:15.352Z,97565.03
2022-12-13T16:01:36.187Z,97551.13
2022-12-13T16:05:56.584Z,97556.50
2022-12-13T16:10:19.626Z,97556.50
2022-12-13T16:14:49.370Z,97546.16
2022-12-13T16:19:17.772Z,97551.31
2022-12-13T16:23:35.052Z,97553.38
2022-12-13T16:27:52.143Z,97552.09
2022-12-13T16:32:10.780Z,97548.53
2022-12-13T16:36:27.886Z,97546.16
2022-12-13T16:40:53.946Z,97556.69
2022-12-13T16:49:51.239Z,97550.53
2022-12-13T16:54:08.187Z,97558.88
2022-12-13T16:58:26.059Z,97556.50
2022-12-13T17:02:43.042Z,97555.91
2022-12-13T17:06:59.995Z,97570.59
2022-12-13T17:11:18.558Z,97570.00
2022-12-13T17:15:36.661Z,97569.59
2022-12-13T17:19:54.709Z,97561.69
2022-12-13T17:24:12.716Z,97565.66
2022-12-13T17:28:29.717Z,97570.56
2022-12-13T17:32:46.647Z,97575.72
2022-12-13T17:37:09.989Z,97586.47
2022-12-13T17:41:27.368Z,97589.19
2022-12-13T17:45:44.443Z,97594.81
2022-12-13T17:50:01.428Z,97601.53
2022-12-13T17:54:18.933Z,97588.97
2022-12-13T17:58:35.935Z,97584.03
2022-12-13T18:02:55.166Z,97593.78
2022-12-13T18:07:13.296Z,97599.50
2022-12-13T18:11:33.415Z,97598.13
2022-12-13T18:15:51.976Z,97608.44
2022-12-13T18:20:09.893Z,97603.13
2022-12-13T18:24:27.826Z,97609.63
2022-12-13T18:28:45.967Z,97603.34
2022-12-13T18:33:03.893Z,97603.91
2022-12-13T18:37:21.118Z,97610.03
2022-12-13T18:41:38.228Z,97615.19
2022-12-13T18:45:55.550Z,97611.88
2022-12-13T18:50:12.604Z,97620.94
2022-12-13T18:54:30.006Z,97619.75
2022-12-13T18:58:50.999Z,97619.13
2022-12-13T19:03:08.294Z,97624.16
2022-12-13T19:07:25.478Z,97622.47
2022-12-13T19:11:42.750Z,97615.59
2022-12-13T19:16:08.122Z,97601.66
2022-12-13T19:20:26.982Z,97619.91
2022-12-13T19:24:44.207Z,97612.75
2022-12-13T19:29:03.041Z,97609.38
2022-12-13T19:33:20.368Z,97609.56
2022-12-13T19:37:38.046Z,97616.69
2022-12-13T19:41:55.333Z,97622.25
2022-12-13T19:46:12.476Z,97628.59
2022-12-13T19:50:30.763Z,97621.28
2022-12-13T19:54:47.942Z,97618.69
2022-12-13T19:59:05.489Z,97623.06
2022-12-13T20:03:23.383Z,97620.41
2022-12-13T20:07:40.797Z,97627.19
2022-12-13T20:11:58.020Z,97631.72
2022-12-13T20:16:18.668Z,97635.72
2022-12-13T20:21:02.352Z,97637.06
2022-12-13T20:25:13.007Z,97632.84
2022-12-13T20:29:30.078Z,97626.53
2022-12-13T20:33:47.561Z,97623.72
2022-12-13T20:38:04.742Z,97631.09
2022-12-13T20:42:22.195Z,97639.56
2022-12-13T20:46:39.700Z,97614.41
2022-12-13T20:51:05.351Z,97620.94
2022-12-13T20:55:22.466Z,97624.28
2022-12-13T20:59:39.578Z,97634.19
2022-12-13T21:04:00.564Z,97633.00
2022-12-13T21:08:36.277Z,97638.31
2022-12-13T21:12:53.340Z,97636.88
2022-12-13T21:17:12.107Z,97638.25
2022-12-13T21:21:30.506Z,97645.28
2022-12-13T21:25:48.136Z,97646.69
2022-12-13T21:30:06.107Z,97644.53
2022-12-13T21:34:23.118Z,97645.34
2022-12-13T21:38:40.928Z,97637.25
2022-12-13T21:42:57.987Z,97629.72
2022-12-13T21:47:15.142Z,97620.59
2022-12-13T21:51:31.978Z,97620.19
2022-12-13T21:55:49.040Z,97614.63
2022-12-13T22:00:07.021Z,97622.97
2022-12-13T22:04:24.208Z,97616.41
2022-12-13T22:08:41.099Z,97610.69
2022-12-13T22:12:58.253Z,97621.97
2022-12-13T22:17:15.133Z,97623.31
2022-12-13T22:21:32.475Z,97622.34
2022-12-13T22:25:49.478Z,97615.19
2022-12-13T22:30:07.646Z,97609.66
2022-12-13T22:34:24.525Z,97614.81
2022-12-13T22:38:41.578Z,97617.34
2022-12-13T22:42:58.468Z,97619.06
2022-12-13T22:47:15.773Z,97610.56
2022-12-13T22:51:32.635Z,97608.78
2022-12-13T22:55:49.736Z,97619.81
2022-12-13T23:00:10.417Z,97622.50
2022-12-13T23:04:27.520Z,97624.38
2022-12-13T23:08:49.076Z,97612.75
2022-12-13T23:13:06.123Z,97607.84
2022-12-13T23:17:22.997Z,97612.34
2022-12-13T23:21:41.512Z,97610.56
2022-12-13T23:26:29.895Z,97602.28
2022-12-13T23:30:47.113Z,97587.97
2022-12-13T23:35:04.149Z,97578.06
2022-12-13T23:39:21.236Z,97579.69
2022-12-13T23:43:39.993Z,97574.94
2022-12-13T23:47:57.187Z,97577.84
2022-12-13T23:52:14.213Z,97573.94
2022-12-13T23:56:31.301Z,97570.16
